sensor_id;sensor_type;location;lat;lon;timestamp;pressure;altitude;pressure_sealevel;temperature;humidity
63808;BME280;49961;43.970;22.868;2023-04-26T00:00:24;100457.66;;;12.15;100.00
63808;BME280;49961;43.970;22.868;2023-04-26T00:01:25;100460.44;;;12.15;100.00
63808;BME280;49961;43.970;22.868;2023-04-26T00:02:26;100459.56;;;12.18;100.00
63808;BME280;49961;43.970;22.868;2023-04-26T00:03:27;100461.53;;;12.18;100.00
63808;BME280;49961;43.970;22.868;2023-04-26T00:04:27;100424.38;;;11.90;100.00
63808;BME280;49961;43.970;22.868;2023-04-26T00:05:28;100462.00;;;12.16;100.00
63808;BME280;49961;43.970;22.868;2023-04-26T00:06:28;100458.44;;;12.16;100.00
63808;BME280;49961;43.970;22.868;2023-04-26T00:07:29;100455.22;;;12.17;100.00
63808;BME280;49961;43.970;22.868;2023-04-26T00:08:29;100460.34;;;12.19;100.00
63808;BME280;49961;43.970;22.868;2023-04-26T00:09:30;100454.78;;;12.19;100.00
63808;BME280;49961;43.970;22.868;2023-04-26T00:10:31;100459.00;;;12.23;100.00
63808;BME280;49961;43.970;22.868;2023-04-26T00:11:31;100346.31;;;11.51;100.00
63808;BME280;49961;43.970;22.868;2023-04-26T00:12:32;100451.22;;;12.18;100.00
63808;BME280;49961;43.970;22.868;2023-04-26T00:13:32;100450.13;;;12.16;100.00
63808;BME280;49961;43.970;22.868;2023-04-26T00:14:32;100439.69;;;12.07;100.00
63808;BME280;49961;43.970;22.868;2023-04-26T00:15:33;100416.94;;;11.87;100.00
63808;BME280;49961;43.970;22.868;2023-04-26T00:16:33;100449.00;;;12.13;100.00
63808;BME280;49961;43.970;22.868;2023-04-26T00:17:34;100447.56;;;12.09;100.00
63808;BME280;49961;43.970;22.868;2023-04-26T00:18:34;100447.91;;;12.11;100.00
63808;BME280;49961;43.970;22.868;2023-04-26T00:19:34;100439.47;;;12.02;100.00
63808;BME280;49961;43.970;22.868;2023-04-26T00:20:36;100452.34;;;12.08;100.00
63808;BME280;49961;43.970;22.868;2023-04-26T00:21:36;100446.78;;;12.08;100.00
63808;BME280;49961;43.970;22.868;2023-04-26T00:22:37;100448.78;;;12.08;100.00
63808;BME280;49961;43.970;22.868;2023-04-26T00:23:37;100446.34;;;12.10;100.00
63808;BME280;49961;43.970;22.868;2023-04-26T00:24:38;100445.91;;;12.11;100.00
63808;BME280;49961;43.970;22.868;2023-04-26T00:25:38;100399.84;;;11.76;100.00
63808;BME280;49961;43.970;22.868;2023-04-26T00:26:39;100439.91;;;12.00;100.00
63808;BME280;49961;43.970;22.868;2023-04-26T00:27:39;100434.91;;;11.95;100.00
63808;BME280;49961;43.970;22.868;2023-04-26T00:28:40;100439.69;;;11.95;100.00
63808;BME280;49961;43.970;22.868;2023-04-26T00:29:40;100436.13;;;11.94;100.00
63808;BME280;49961;43.970;22.868;2023-04-26T00:30:41;100437.91;;;11.88;100.00
63808;BME280;49961;43.970;22.868;2023-04-26T00:31:46;100429.38;;;11.83;100.00
63808;BME280;49961;43.970;22.868;2023-04-26T00:32:47;100431.38;;;11.82;100.00
63808;BME280;49961;43.970;22.868;2023-04-26T00:33:47;100434.16;;;11.82;100.00
63808;BME280;49961;43.970;22.868;2023-04-26T00:34:48;100362.97;;;11.38;100.00
63808;BME280;49961;43.970;22.868;2023-04-26T00:35:48;100433.38;;;11.82;100.00
63808;BME280;49961;43.970;22.868;2023-04-26T00:36:49;100428.59;;;11.82;100.00
63808;BME280;49961;43.970;22.868;2023-04-26T00:37:50;100328.00;;;11.16;100.00
63808;BME280;49961;43.970;22.868;2023-04-26T00:38:50;100427.50;;;11.80;100.00
63808;BME280;49961;43.970;22.868;2023-04-26T00:39:50;100424.28;;;11.81;100.00
63808;BME280;49961;43.970;22.868;2023-04-26T00:40:51;100384.94;;;11.58;100.00
63808;BME280;49961;43.970;22.868;2023-04-26T00:41:51;100423.59;;;11.77;100.00
63808;BME280;49961;43.970;22.868;2023-04-26T00:43:01;100424.38;;;11.78;100.00
63808;BME280;49961;43.970;22.868;2023-04-26T00:44:02;100383.50;;;11.53;100.00
63808;BME280;49961;43.970;22.868;2023-04-26T00:45:03;100421.63;;;11.78;100.00
63808;BME280;49961;43.970;22.868;2023-04-26T00:46:03;100420.03;;;11.77;100.00
63808;BME280;49961;43.970;22.868;2023-04-26T00:47:04;100422.81;;;11.77;100.00
63808;BME280;49961;43.970;22.868;2023-04-26T00:48:05;100415.84;;;11.72;100.00
63808;BME280;49961;43.970;22.868;2023-04-26T00:49:05;100409.50;;;11.72;100.00
63808;BME280;49961;43.970;22.868;2023-04-26T00:50:06;100349.97;;;11.23;100.00
63808;BME280;49961;43.970;22.868;2023-04-26T00:51:08;100333.22;;;11.14;100.00
63808;BME280;49961;43.970;22.868;2023-04-26T00:52:09;100411.94;;;11.70;100.00
63808;BME280;49961;43.970;22.868;2023-04-26T00:53:11;100335.44;;;11.19;100.00
63808;BME280;49961;43.970;22.868;2023-04-26T00:54:14;100413.50;;;11.71;100.00
63808;BME280;49961;43.970;22.868;2023-04-26T00:55:15;100422.59;;;11.71;100.00
63808;BME280;49961;43.970;22.868;2023-04-26T00:56:16;100417.19;;;11.68;100.00
63808;BME280;49961;43.970;22.868;2023-04-26T00:57:17;100408.06;;;11.67;100.00
63808;BME280;49961;43.970;22.868;2023-04-26T00:58:17;100411.94;;;11.70;100.00
63808;BME280;49961;43.970;22.868;2023-04-26T00:59:20;100432.16;;;11.70;100.00
63808;BME280;49961;43.970;22.868;2023-04-26T01:00:21;100375.41;;;11.46;100.00
63808;BME280;49961;43.970;22.868;2023-04-26T01:01:21;100417.63;;;11.66;100.00
63808;BME280;49961;43.970;22.868;2023-04-26T01:02:22;100422.38;;;11.66;100.00
63808;BME280;49961;43.970;22.868;2023-04-26T01:03:23;100411.63;;;11.68;100.00
63808;BME280;49961;43.970;22.868;2023-04-26T01:04:24;100415.16;;;11.68;100.00
63808;BME280;49961;43.970;22.868;2023-04-26T01:05:26;100418.84;;;11.65;100.00
63808;BME280;49961;43.970;22.868;2023-04-26T01:06:32;100410.59;;;11.62;100.00
63808;BME280;49961;43.970;22.868;2023-04-26T01:07:35;100405.97;;;11.59;100.00
63808;BME280;49961;43.970;22.868;2023-04-26T01:08:36;100413.38;;;11.62;100.00
63808;BME280;49961;43.970;22.868;2023-04-26T01:09:36;100376.63;;;11.33;100.00
63808;BME280;49961;43.970;22.868;2023-04-26T01:10:38;100409.13;;;11.57;100.00
63808;BME280;49961;43.970;22.868;2023-04-26T01:11:39;100363.41;;;11.24;100.00
63808;BME280;49961;43.970;22.868;2023-04-26T01:12:41;100414.56;;;11.48;100.00
63808;BME280;49961;43.970;22.868;2023-04-26T01:13:42;100417.03;;;11.46;100.00
63808;BME280;49961;43.970;22.868;2023-04-26T01:14:43;100418.56;;;11.47;100.00
63808;BME280;49961;43.970;22.868;2023-04-26T01:15:45;100417.34;;;11.48;100.00
63808;BME280;49961;43.970;22.868;2023-04-26T01:16:45;100419.00;;;11.46;100.00
63808;BME280;49961;43.970;22.868;2023-04-26T01:17:46;100418.25;;;11.45;100.00
63808;BME280;49961;43.970;22.868;2023-04-26T01:18:51;100421.13;;;11.42;100.00
63808;BME280;49961;43.970;22.868;2023-04-26T01:19:52;100421.22;;;11.38;100.00
63808;BME280;49961;43.970;22.868;2023-04-26T01:20:52;100416.31;;;11.30;100.00
63808;BME280;49961;43.970;22.868;2023-04-26T01:21:53;100422.31;;;11.28;100.00
63808;BME280;49961;43.970;22.868;2023-04-26T01:22:53;100418.00;;;11.27;100.00
63808;BME280;49961;43.970;22.868;2023-04-26T01:23:54;100409.78;;;11.24;100.00
63808;BME280;49961;43.970;22.868;2023-04-26T01:24:55;100349.47;;;10.74;100.00
63808;BME280;49961;43.970;22.868;2023-04-26T01:25:57;100410.22;;;11.22;100.00
63808;BME280;49961;43.970;22.868;2023-04-26T01:26:58;100406.53;;;11.13;100.00
63808;BME280;49961;43.970;22.868;2023-04-26T01:27:58;100422.66;;;11.18;100.00
63808;BME280;49961;43.970;22.868;2023-04-26T01:28:58;100331.59;;;10.63;100.00
63808;BME280;49961;43.970;22.868;2023-04-26T01:29:59;100396.97;;;11.01;100.00
63808;BME280;49961;43.970;22.868;2023-04-26T01:30:59;100428.88;;;11.22;100.00
63808;BME280;49961;43.970;22.868;2023-04-26T01:32:00;100426.19;;;11.18;100.00
63808;BME280;49961;43.970;22.868;2023-04-26T01:33:00;100422.66;;;11.18;100.00
63808;BME280;49961;43.970;22.868;2023-04-26T01:34:01;100431.41;;;11.16;100.00
63808;BME280;49961;43.970;22.868;2023-04-26T01:35:01;100425.19;;;11.12;100.00
63808;BME280;49961;43.970;22.868;2023-04-26T01:36:01;100420.28;;;11.04;100.00
63808;BME280;49961;43.970;22.868;2023-04-26T01:37:02;100427.72;;;11.07;100.00
63808;BME280;49961;43.970;22.868;2023-04-26T01:38:02;100430.97;;;11.18;100.00
63808;BME280;49961;43.970;22.868;2023-04-26T01:39:03;100434.06;;;11.20;100.00
63808;BME280;49961;43.970;22.868;2023-04-26T01:40:04;100431.97;;;11.24;100.00
63808;BME280;49961;43.970;22.868;2023-04-26T01:41:06;100435.97;;;11.23;100.00
63808;BME280;49961;43.970;22.868;2023-04-26T01:42:06;100435.06;;;11.26;100.00
63808;BME280;49961;43.970;22.868;2023-04-26T01:43:07;100433.09;;;11.26;100.00
63808;BME280;49961;43.970;22.868;2023-04-26T01:44:07;100442.53;;;11.29;100.00
63808;BME280;49961;43.970;22.868;2023-04-26T01:45:08;100444.44;;;11.32;100.00
63808;BME280;49961;43.970;22.868;2023-04-26T01:46:08;100446.84;;;11.30;100.00
63808;BME280;49961;43.970;22.868;2023-04-26T01:47:09;100431.53;;;11.25;100.00
63808;BME280;49961;43.970;22.868;2023-04-26T01:48:09;100445.19;;;11.32;100.00
63808;BME280;49961;43.970;22.868;2023-04-26T01:49:10;100475.25;;;11.34;100.00
63808;BME280;49961;43.970;22.868;2023-04-26T01:50:10;100445.19;;;11.32;100.00
63808;BME280;49961;43.970;22.868;2023-04-26T01:51:11;100432.41;;;11.22;100.00
63808;BME280;49961;43.970;22.868;2023-04-26T01:52:12;100459.84;;;11.33;100.00
63808;BME280;49961;43.970;22.868;2023-04-26T01:53:12;100449.03;;;11.22;100.00
63808;BME280;49961;43.970;22.868;2023-04-26T01:54:12;100458.28;;;11.19;100.00
63808;BME280;49961;43.970;22.868;2023-04-26T01:55:13;100451.94;;;11.19;100.00
63808;BME280;49961;43.970;22.868;2023-04-26T01:56:13;100455.50;;;11.19;100.00
63808;BME280;49961;43.970;22.868;2023-04-26T01:57:14;100458.03;;;11.14;100.00
63808;BME280;49961;43.970;22.868;2023-04-26T01:58:14;100432.91;;;11.05;100.00
63808;BME280;49961;43.970;22.868;2023-04-26T01:59:15;100440.69;;;11.10;100.00
63808;BME280;49961;43.970;22.868;2023-04-26T02:00:16;100446.72;;;11.21;100.00
63808;BME280;49961;43.970;22.868;2023-04-26T02:01:16;100372.84;;;10.73;100.00
63808;BME280;49961;43.970;22.868;2023-04-26T02:02:17;100452.63;;;11.23;100.00
63808;BME280;49961;43.970;22.868;2023-04-26T02:03:18;100447.81;;;11.23;100.00
63808;BME280;49961;43.970;22.868;2023-04-26T02:04:18;100361.72;;;10.61;100.00
63808;BME280;49961;43.970;22.868;2023-04-26T02:05:19;100446.06;;;11.17;100.00
63808;BME280;49961;43.970;22.868;2023-04-26T02:06:19;100441.69;;;11.16;100.00
63808;BME280;49961;43.970;22.868;2023-04-26T02:07:20;100438.59;;;11.14;100.00
63808;BME280;49961;43.970;22.868;2023-04-26T02:08:21;100322.44;;;10.37;100.00
63808;BME280;49961;43.970;22.868;2023-04-26T02:09:21;100442.75;;;11.22;100.00
63808;BME280;49961;43.970;22.868;2023-04-26T02:10:21;100439.59;;;11.20;100.00
63808;BME280;49961;43.970;22.868;2023-04-26T02:11:22;100444.28;;;11.23;100.00
63808;BME280;49961;43.970;22.868;2023-04-26T02:12:23;100436.72;;;11.23;100.00
63808;BME280;49961;43.970;22.868;2023-04-26T02:13:24;100442.53;;;11.29;100.00
63808;BME280;49961;43.970;22.868;2023-04-26T02:14:25;100438.97;;;11.28;100.00
63808;BME280;49961;43.970;22.868;2023-04-26T02:15:25;100439.50;;;11.23;100.00
63808;BME280;49961;43.970;22.868;2023-04-26T02:16:26;100441.28;;;11.30;100.00
63808;BME280;49961;43.970;22.868;2023-04-26T02:17:26;100263.75;;;10.14;100.00
63808;BME280;49961;43.970;22.868;2023-04-26T02:18:28;100432.09;;;11.33;100.00
63808;BME280;49961;43.970;22.868;2023-04-26T02:19:29;100433.97;;;11.36;100.00
63808;BME280;49961;43.970;22.868;2023-04-26T02:20:30;100428.09;;;11.34;100.00
63808;BME280;49961;43.970;22.868;2023-04-26T02:21:30;100433.75;;;11.30;100.00
63808;BME280;49961;43.970;22.868;2023-04-26T02:22:30;100435.44;;;11.28;100.00
63808;BME280;49961;43.970;22.868;2023-04-26T02:23:31;100427.75;;;11.19;100.00
63808;BME280;49961;43.970;22.868;2023-04-26T02:24:32;100438.53;;;11.30;100.00
63808;BME280;49961;43.970;22.868;2023-04-26T02:25:32;100441.41;;;11.26;100.00
63808;BME280;49961;43.970;22.868;2023-04-26T02:26:33;100435.00;;;11.29;100.00
63808;BME280;49961;43.970;22.868;2023-04-26T02:27:33;100437.09;;;11.25;100.00
63808;BME280;49961;43.970;22.868;2023-04-26T02:28:33;100425.72;;;11.07;100.00
63808;BME280;49961;43.970;22.868;2023-04-26T02:29:34;100444.03;;;11.17;100.00
63808;BME280;49961;43.970;22.868;2023-04-26T02:30:36;100446.78;;;11.05;100.00
63808;BME280;49961;43.970;22.868;2023-04-26T02:31:36;100447.13;;;11.07;100.00
63808;BME280;49961;43.970;22.868;2023-04-26T02:32:36;100410.13;;;10.85;100.00
63808;BME280;49961;43.970;22.868;2023-04-26T02:33:37;100323.03;;;10.29;100.00
63808;BME280;49961;43.970;22.868;2023-04-26T02:34:37;100437.59;;;11.08;100.00
63808;BME280;49961;43.970;22.868;2023-04-26T02:35:38;100439.16;;;11.09;100.00
63808;BME280;49961;43.970;22.868;2023-04-26T02:36:38;100296.06;;;10.17;100.00
63808;BME280;49961;43.970;22.868;2023-04-26T02:37:39;100419.13;;;10.89;100.00
63808;BME280;49961;43.970;22.868;2023-04-26T02:38:39;100332.50;;;10.44;100.00
63808;BME280;49961;43.970;22.868;2023-04-26T02:39:40;100434.28;;;11.13;100.00
63808;BME280;49961;43.970;22.868;2023-04-26T02:40:41;100435.84;;;11.14;100.00
63808;BME280;49961;43.970;22.868;2023-04-26T02:41:41;100431.50;;;11.13;100.00
63808;BME280;49961;43.970;22.868;2023-04-26T02:42:42;100433.06;;;11.14;100.00
63808;BME280;49961;43.970;22.868;2023-04-26T02:43:42;100426.06;;;11.09;100.00
63808;BME280;49961;43.970;22.868;2023-04-26T02:44:43;100403.06;;;10.96;100.00
63808;BME280;49961;43.970;22.868;2023-04-26T02:45:43;100335.88;;;10.51;100.00
63808;BME280;49961;43.970;22.868;2023-04-26T02:46:44;100419.63;;;11.12;100.00
63808;BME280;49961;43.970;22.868;2023-04-26T02:47:44;100426.41;;;11.11;100.00
63808;BME280;49961;43.970;22.868;2023-04-26T02:48:45;100421.06;;;11.04;100.00
63808;BME280;49961;43.970;22.868;2023-04-26T02:49:45;100319.25;;;10.23;100.00
63808;BME280;49961;43.970;22.868;2023-04-26T02:50:46;100308.31;;;10.32;100.00
63808;BME280;49961;43.970;22.868;2023-04-26T02:51:46;100416.19;;;11.08;100.00
63808;BME280;49961;43.970;22.868;2023-04-26T02:52:46;100420.84;;;11.11;100.00
63808;BME280;49961;43.970;22.868;2023-04-26T02:53:47;100376.09;;;10.84;100.00
63808;BME280;49961;43.970;22.868;2023-04-26T02:54:47;100409.06;;;11.07;100.00
63808;BME280;49961;43.970;22.868;2023-04-26T02:55:48;100403.53;;;11.07;100.00
63808;BME280;49961;43.970;22.868;2023-04-26T02:56:48;100415.75;;;11.10;100.00
63808;BME280;49961;43.970;22.868;2023-04-26T02:57:49;100410.66;;;11.08;100.00
63808;BME280;49961;43.970;22.868;2023-04-26T02:58:49;100398.78;;;11.08;100.00
63808;BME280;49961;43.970;22.868;2023-04-26T02:59:50;100415.09;;;11.06;100.00
63808;BME280;49961;43.970;22.868;2023-04-26T03:00:51;100414.72;;;11.04;100.00
63808;BME280;49961;43.970;22.868;2023-04-26T03:01:53;100409.97;;;11.04;100.00
63808;BME280;49961;43.970;22.868;2023-04-26T03:02:53;100416.75;;;11.03;100.00
63808;BME280;49961;43.970;22.868;2023-04-26T03:03:54;100415.41;;;11.08;100.00
63808;BME280;49961;43.970;22.868;2023-04-26T03:04:54;100412.31;;;11.06;100.00
63808;BME280;49961;43.970;22.868;2023-04-26T03:05:55;100409.53;;;11.06;100.00
63808;BME280;49961;43.970;22.868;2023-04-26T03:06:55;100406.75;;;11.06;100.00
63808;BME280;49961;43.970;22.868;2023-04-26T03:07:56;100408.50;;;11.00;100.00
63808;BME280;49961;43.970;22.868;2023-04-26T03:08:56;100394.41;;;10.94;100.00
63808;BME280;49961;43.970;22.868;2023-04-26T03:09:56;100401.31;;;11.02;100.00
63808;BME280;49961;43.970;22.868;2023-04-26T03:10:57;100404.53;;;11.01;100.00
63808;BME280;49961;43.970;22.868;2023-04-26T03:11:57;100403.31;;;11.02;100.00
63808;BME280;49961;43.970;22.868;2023-04-26T03:12:58;100362.88;;;10.76;100.00
63808;BME280;49961;43.970;22.868;2023-04-26T03:13:58;100386.09;;;10.94;100.00
63808;BME280;49961;43.970;22.868;2023-04-26T03:14:58;100386.25;;;11.03;100.00
63808;BME280;49961;43.970;22.868;2023-04-26T03:15:59;100404.22;;;11.11;100.00
63808;BME280;49961;43.970;22.868;2023-04-26T03:17:00;100394.31;;;10.98;100.00
63808;BME280;49961;43.970;22.868;2023-04-26T03:18:01;100303.63;;;10.45;100.00
63808;BME280;49961;43.970;22.868;2023-04-26T03:19:02;100376.69;;;10.92;100.00
63808;BME280;49961;43.970;22.868;2023-04-26T03:20:03;100349.22;;;10.69;100.00
63808;BME280;49961;43.970;22.868;2023-04-26T03:21:06;100405.09;;;11.08;100.00
63808;BME280;49961;43.970;22.868;2023-04-26T03:22:06;100406.84;;;11.02;100.00
63808;BME280;49961;43.970;22.868;2023-04-26T03:23:06;100402.63;;;10.98;100.00
63808;BME280;49961;43.970;22.868;2023-04-26T03:24:07;100407.63;;;11.03;100.00
63808;BME280;49961;43.970;22.868;2023-04-26T03:25:07;100412.31;;;11.06;100.00
63808;BME280;49961;43.970;22.868;2023-04-26T03:26:08;100407.97;;;11.05;100.00
63808;BME280;49961;43.970;22.868;2023-04-26T03:27:08;100404.44;;;11.04;100.00
63808;BME280;49961;43.970;22.868;2023-04-26T03:28:09;100415.63;;;11.01;100.00
63808;BME280;49961;43.970;22.868;2023-04-26T03:29:09;100403.84;;;10.97;100.00
63808;BME280;49961;43.970;22.868;2023-04-26T03:30:11;100402.38;;;10.92;100.00
63808;BME280;49961;43.970;22.868;2023-04-26T03:31:12;100407.06;;;10.95;100.00
63808;BME280;49961;43.970;22.868;2023-04-26T03:32:12;100407.38;;;10.97;100.00
63808;BME280;49961;43.970;22.868;2023-04-26T03:33:13;100396.66;;;10.99;100.00
63808;BME280;49961;43.970;22.868;2023-04-26T03:34:13;100394.75;;;10.96;100.00
63808;BME280;49961;43.970;22.868;2023-04-26T03:35:14;100400.41;;;10.93;100.00
63808;BME280;49961;43.970;22.868;2023-04-26T03:36:14;100400.66;;;10.98;100.00
63808;BME280;49961;43.970;22.868;2023-04-26T03:37:16;100402.09;;;11.03;100.00
63808;BME280;49961;43.970;22.868;2023-04-26T03:38:16;100398.53;;;11.02;100.00
63808;BME280;49961;43.970;22.868;2023-04-26T03:39:17;100413.63;;;11.01;100.00
63808;BME280;49961;43.970;22.868;2023-04-26T03:40:17;100393.53;;;10.97;100.00
63808;BME280;49961;43.970;22.868;2023-04-26T03:41:18;100390.19;;;10.90;100.00
63808;BME280;49961;43.970;22.868;2023-04-26T03:42:19;100396.50;;;10.90;100.00
63808;BME280;49961;43.970;22.868;2023-04-26T03:43:20;100402.16;;;10.87;100.00
63808;BME280;49961;43.970;22.868;2023-04-26T03:44:20;100377.28;;;10.71;100.00
63808;BME280;49961;43.970;22.868;2023-04-26T03:45:21;100400.69;;;10.82;100.00
63808;BME280;49961;43.970;22.868;2023-04-26T03:46:21;100400.78;;;10.79;100.00
63808;BME280;49961;43.970;22.868;2023-04-26T03:47:22;100406.34;;;10.79;100.00
63808;BME280;49961;43.970;22.868;2023-04-26T03:48:22;100399.94;;;10.82;100.00
63808;BME280;49961;43.970;22.868;2023-04-26T03:49:22;100401.38;;;10.86;100.00
63808;BME280;49961;43.970;22.868;2023-04-26T03:50:23;100398.50;;;10.90;100.00
63808;BME280;49961;43.970;22.868;2023-04-26T03:51:23;100405.63;;;10.91;100.00
63808;BME280;49961;43.970;22.868;2023-04-26T03:52:24;100398.75;;;10.95;100.00
63808;BME280;49961;43.970;22.868;2023-04-26T03:53:24;100408.19;;;10.98;100.00
63808;BME280;49961;43.970;22.868;2023-04-26T03:54:24;100402.88;;;11.03;100.00
63808;BME280;49961;43.970;22.868;2023-04-26T03:55:25;100403.44;;;10.98;100.00
63808;BME280;49961;43.970;22.868;2023-04-26T03:56:25;100381.88;;;10.90;100.00
63808;BME280;49961;43.970;22.868;2023-04-26T03:57:26;100404.66;;;11.10;100.00
63808;BME280;49961;43.970;22.868;2023-04-26T03:58:27;100408.41;;;11.16;100.00
63808;BME280;49961;43.970;22.868;2023-04-26T03:59:28;100400.56;;;11.14;100.00
63808;BME280;49961;43.970;22.868;2023-04-26T04:00:29;100412.13;;;11.25;100.00
63808;BME280;49961;43.970;22.868;2023-04-26T04:01:29;100285.53;;;10.40;100.00
63808;BME280;49961;43.970;22.868;2023-04-26T04:02:30;100413.44;;;11.21;100.00
63808;BME280;49961;43.970;22.868;2023-04-26T04:03:32;100399.78;;;11.14;100.00
63808;BME280;49961;43.970;22.868;2023-04-26T04:04:32;100418.97;;;11.21;100.00
63808;BME280;49961;43.970;22.868;2023-04-26T04:05:33;100413.97;;;11.16;100.00
63808;BME280;49961;43.970;22.868;2023-04-26T04:06:34;100419.19;;;11.14;100.00
63808;BME280;49961;43.970;22.868;2023-04-26T04:07:34;100419.72;;;11.09;100.00
63808;BME280;49961;43.970;22.868;2023-04-26T04:08:35;100423.88;;;11.17;100.00
63808;BME280;49961;43.970;22.868;2023-04-26T04:09:35;100418.53;;;11.22;100.00
63808;BME280;49961;43.970;22.868;2023-04-26T04:10:36;100414.22;;;11.21;100.00
63808;BME280;49961;43.970;22.868;2023-04-26T04:11:37;100410.75;;;11.17;100.00
63808;BME280;49961;43.970;22.868;2023-04-26T04:12:37;100368.47;;;10.88;100.00
63808;BME280;49961;43.970;22.868;2023-04-26T04:13:38;100414.00;;;11.28;100.00
63808;BME280;49961;43.970;22.868;2023-04-26T04:14:38;100414.47;;;11.27;100.00
63808;BME280;49961;43.970;22.868;2023-04-26T04:15:39;100359.78;;;10.86;100.00
63808;BME280;49961;43.970;22.868;2023-04-26T04:16:39;100421.44;;;11.31;100.00
63808;BME280;49961;43.970;22.868;2023-04-26T04:17:39;100422.81;;;11.39;100.00
63808;BME280;49961;43.970;22.868;2023-04-26T04:18:40;100395.91;;;11.24;100.00
63808;BME280;49961;43.970;22.868;2023-04-26T04:19:41;100427.34;;;11.46;100.00
63808;BME280;49961;43.970;22.868;2023-04-26T04:20:41;100425.34;;;11.46;100.00
63808;BME280;49961;43.970;22.868;2023-04-26T04:21:41;100261.81;;;10.39;100.00
63808;BME280;49961;43.970;22.868;2023-04-26T04:22:42;100432.31;;;11.51;100.00
63808;BME280;49961;43.970;22.868;2023-04-26T04:23:43;100421.59;;;11.53;100.00
63808;BME280;49961;43.970;22.868;2023-04-26T04:24:43;100419.44;;;11.57;100.00
63808;BME280;49961;43.970;22.868;2023-04-26T04:25:44;100421.78;;;11.58;100.00
63808;BME280;49961;43.970;22.868;2023-04-26T04:26:44;100421.94;;;11.67;100.00
63808;BME280;49961;43.970;22.868;2023-04-26T04:27:45;100424.59;;;11.71;100.00
63808;BME280;49961;43.970;22.868;2023-04-26T04:28:45;100412.75;;;11.70;100.00
63808;BME280;49961;43.970;22.868;2023-04-26T04:29:46;100423.03;;;11.82;100.00
63808;BME280;49961;43.970;22.868;2023-04-26T04:30:46;100425.38;;;11.84;100.00
63808;BME280;49961;43.970;22.868;2023-04-26T04:31:47;100422.72;;;11.93;100.00
63808;BME280;49961;43.970;22.868;2023-04-26T04:32:47;100421.81;;;11.96;100.00
63808;BME280;49961;43.970;22.868;2023-04-26T04:33:48;100422.91;;;11.98;100.00
63808;BME280;49961;43.970;22.868;2023-04-26T04:34:48;100424.34;;;12.03;100.00
63808;BME280;49961;43.970;22.868;2023-04-26T04:35:50;100412.25;;;11.97;100.00
63808;BME280;49961;43.970;22.868;2023-04-26T04:36:51;100397.75;;;11.68;100.00
63808;BME280;49961;43.970;22.868;2023-04-26T04:37:51;100425.44;;;12.05;100.00
63808;BME280;49961;43.970;22.868;2023-04-26T04:38:52;100431.00;;;12.05;100.00
63808;BME280;49961;43.970;22.868;2023-04-26T04:39:53;100426.13;;;11.97;100.00
63808;BME280;49961;43.970;22.868;2023-04-26T04:40:53;100433.00;;;12.17;100.00
63808;BME280;49961;43.970;22.868;2023-04-26T04:41:53;100432.09;;;12.20;100.00
63808;BME280;49961;43.970;22.868;2023-04-26T04:42:54;100464.09;;;12.25;100.00
63808;BME280;49961;43.970;22.868;2023-04-26T04:43:54;100311.91;;;11.36;100.00
63808;BME280;49961;43.970;22.868;2023-04-26T04:44:55;100432.34;;;12.13;100.00
63808;BME280;49961;43.970;22.868;2023-04-26T04:45:56;100436.31;;;12.25;100.00
63808;BME280;49961;43.970;22.868;2023-04-26T04:46:57;100431.31;;;12.32;100.00
63808;BME280;49961;43.970;22.868;2023-04-26T04:47:58;100436.50;;;12.30;100.00
63808;BME280;49961;43.970;22.868;2023-04-26T04:48:58;100435.94;;;12.35;100.00
63808;BME280;49961;43.970;22.868;2023-04-26T04:49:58;100411.31;;;12.25;100.00
63808;BME280;49961;43.970;22.868;2023-04-26T04:50:59;100431.38;;;12.41;100.00
63808;BME280;49961;43.970;22.868;2023-04-26T04:51:59;100437.81;;;12.51;100.00
63808;BME280;49961;43.970;22.868;2023-04-26T04:53:00;100437.38;;;12.52;100.00
63808;BME280;49961;43.970;22.868;2023-04-26T04:54:11;100436.56;;;12.52;100.00
63808;BME280;49961;43.970;22.868;2023-04-26T04:55:12;100386.19;;;12.28;100.00
63808;BME280;49961;43.970;22.868;2023-04-26T04:56:12;100434.00;;;12.57;100.00
63808;BME280;49961;43.970;22.868;2023-04-26T04:57:13;100438.22;;;12.62;100.00
63808;BME280;49961;43.970;22.868;2023-04-26T04:58:15;100307.78;;;11.78;100.00
63808;BME280;49961;43.970;22.868;2023-04-26T04:59:16;100443.63;;;12.65;100.00
63808;BME280;49961;43.970;22.868;2023-04-26T05:00:17;100446.41;;;12.65;100.00
63808;BME280;49961;43.970;22.868;2023-04-26T05:01:17;100440.63;;;12.72;100.00
63808;BME280;49961;43.970;22.868;2023-04-26T05:02:18;100434.41;;;12.68;100.00
63808;BME280;49961;43.970;22.868;2023-04-26T05:03:19;100460.63;;;12.80;100.00
63808;BME280;49961;43.970;22.868;2023-04-26T05:04:19;100427.34;;;12.76;100.00
63808;BME280;49961;43.970;22.868;2023-04-26T05:05:20;100443.66;;;12.87;100.00
63808;BME280;49961;43.970;22.868;2023-04-26T05:06:20;100447.56;;;12.89;100.00
63808;BME280;49961;43.970;22.868;2023-04-26T05:07:21;100440.63;;;12.94;100.00
63808;BME280;49961;43.970;22.868;2023-04-26T05:08:22;100444.88;;;12.98;100.00
63808;BME280;49961;43.970;22.868;2023-04-26T05:09:22;100381.97;;;12.58;100.00